Date,TemperatureHighF,TemperatureAvgF,TemperatureLowF,DewpointHighF,DewpointAvgF,DewpointLowF,HumidityHigh,HumidityAvg,HumidityLow,PressureMaxIn,PressureMinIn,WindSpeedMaxMPH,WindSpeedAvgMPH,GustSpeedMaxMPH,PrecipitationSumIn
2013-1-1,14,9,0,9,5,-1,99,81,69,0.00,40.00,27,19,37,0.00
2013-1-2,14,10,6,9,5,0,90,79,68,0.00,40.00,32,21,39,0.00
2013-1-3,20,12,6,8,1,-3,76,61,47,0.00,40.00,24,18,32,0.00
2013-1-4,25,14,6,7,1,-4,67,53,44,0.00,40.00,18,13,21,0.00
2013-1-5,18,12,2,6,1,-4,77,61,47,0.00,40.00,20,12,23,0.00
2013-1-6,42,30,16,6,0,-9,50,28,18,0.00,40.00,18,9,23,0.00
2013-1-7,39,29,22,9,3,-1,37,32,25,0.00,40.00,30,12,40,0.00
2013-1-8,32,27,22,21,16,4,75,63,38,0.00,40.00,43,24,58,0.00
2013-1-9,46,35,20,21,16,9,79,48,29,0.00,40.00,27,8,36,0.00
2013-1-10,47,39,30,13,9,6,39,29,22,0.00,40.00,24,7,31,0.00
2013-1-11,34,18,5,21,7,-2,99,64,34,0.00,40.00,32,19,45,0.00
2013-1-12,4,-4,-10,0,-5,-11,96,94,78,0.00,40.00,20,10,27,0.00
2013-1-13,7,-4,-10,3,-6,-10,96,93,74,0.00,40.00,9,5,11,0.00
2013-1-14,2,-6,-12,-3,-9,-14,95,84,70,0.00,40.00,21,8,26,0.00
2013-1-15,20,10,-4,14,3,-10,80,73,64,0.00,40.00,34,27,44,0.00
2013-1-16,33,22,14,21,16,11,89,78,56,0.00,40.00,35,18,47,0.00
2013-1-17,39,26,14,17,12,8,82,58,33,0.00,40.00,25,10,34,0.00
2013-1-18,38,31,25,12,9,6,43,38,33,0.00,40.00,42,27,53,0.00
2013-1-19,41,32,25,11,7,1,41,33,24,0.00,40.00,42,19,53,0.00
2013-1-20,38,30,24,10,6,4,42,36,31,0.00,40.00,37,20,47,0.00
2013-1-21,37,31,22,14,9,4,47,40,30,0.00,40.00,40,30,55,0.00
2013-1-22,45,36,26,9,4,-3,36,25,19,0.00,40.00,35,20,47,0.00
2013-1-23,51,43,35,13,5,-3,25,20,16,0.00,40.00,32,16,42,0.00
2013-1-24,47,37,31,31,16,2,87,45,21,0.00,40.00,32,18,44,0.00
2013-1-25,44,35,28,29,27,25,92,73,53,0.00,40.00,27,14,32,0.00
2013-1-26,44,36,30,31,28,25,91,72,53,0.00,40.00,21,8,26,0.00
2013-1-27,44,35,27,32,22,11,99,63,29,0.00,40.00,21,11,31,0.00
2013-1-28,33,24,11,27,17,5,99,77,46,0.00,40.00,23,13,31,0.00
2013-1-29,16,10,4,8,3,-1,98,75,51,0.00,40.00,29,17,34,0.00
2013-1-30,24,15,0,20,11,0,98,83,70,0.00,40.00,42,27,52,0.00
2013-1-31,29,26,22,19,16,13,82,66,55,0.00,40.00,34,26,45,0.00
2013-2-1,33,26,22,24,19,15,99,77,57,0.00,40.00,35,23,46,0.00
2013-2-2,38,28,17,17,10,4,78,49,32,0.00,40.00,31,20,43,0.00
2013-2-3,41,32,23,8,2,-1,37,28,18,0.00,40.00,29,17,42,0.00
2013-2-4,37,30,22,13,7,0,47,38,31,0.00,40.00,37,26,50,0.00
2013-2-5,42,35,25,22,17,11,59,49,42,0.00,40.00,32,15,47,0.00
2013-2-6,37,30,22,24,19,13,78,61,50,0.00,40.00,24,12,30,0.00
2013-2-7,40,26,17,16,11,1,73,56,19,0.00,40.00,23,12,35,0.00
2013-2-8,41,31,20,13,8,1,68,38,28,0.00,40.00,18,8,27,0.00
2013-2-9,28,21,15,25,17,10,100,83,60,0.00,40.00,24,11,30,0.00
2013-2-10,16,13,4,16,12,4,99,97,88,0.00,40.00,27,18,34,0.00
2013-2-11,16,8,1,11,4,-1,99,85,64,0.00,40.00,23,8,28,0.00
2013-2-12,22,14,6,9,3,-5,72,60,49,0.00,40.00,36,21,44,0.00
2013-2-13,27,22,17,18,14,9,77,70,65,0.00,40.00,35,25,49,0.00
2013-2-14,24,17,9,21,14,9,99,89,70,0.00,40.00,30,18,39,0.00
2013-2-15,23,17,8,15,13,8,99,85,64,0.00,40.00,40,23,48,0.00
2013-2-16,36,29,20,17,13,8,71,51,39,0.00,40.00,39,26,49,0.00
2013-2-17,39,30,17,20,8,4,96,44,24,0.00,40.00,30,21,45,0.00
2013-2-18,20,16,10,17,9,-2,99,75,47,0.00,40.00,30,17,40,0.00
2013-2-19,29,18,7,12,6,-3,99,61,41,0.00,40.00,17,8,22,0.00
2013-2-20,42,21,9,19,12,6,99,72,25,0.00,40.00,17,8,24,0.00
2013-2-21,17,14,9,17,14,9,100,99,99,0.00,40.00,29,12,35,0.00
2013-2-22,20,15,10,13,8,4,99,75,61,0.00,40.00,32,19,48,0.00
2013-2-23,31,22,15,21,13,5,99,68,50,0.00,40.00,32,12,39,0.00
2013-2-24,19,15,5,19,14,5,100,98,89,0.00,40.00,27,15,32,0.00
2013-2-25,26,16,5,13,8,5,99,72,53,0.00,40.00,26,16,35,0.00
2013-2-26,20,16,9,17,13,7,100,90,63,0.00,40.00,34,22,40,0.00
2013-2-27,20,13,6,12,8,3,100,80,59,0.00,40.00,27,18,34,0.00
2013-2-28,24,18,12,16,10,3,88,72,64,0.00,40.00,34,25,44,0.00
2013-3-1,35,26,17,26,21,13,90,79,63,0.00,40.00,32,24,44,0.00
2013-3-2,43,37,29,25,22,17,80,54,42,0.00,40.00,33,20,42,0.00
2013-3-3,43,38,30,27,21,16,88,52,37,0.00,40.00,35,21,45,0.00
2013-3-4,32,19,9,26,15,5,99,82,68,0.00,40.00,40,24,51,0.00
2013-3-5,41,24,6,14,6,2,88,52,19,0.00,40.00,25,12,32,0.00
2013-3-6,51,39,31,20,13,0,52,34,23,0.00,40.00,23,12,34,0.00
2013-3-7,51,41,29,24,20,15,72,44,32,0.00,40.00,17,9,29,0.00
2013-3-8,42,33,26,29,25,17,99,73,36,0.00,40.00,14,7,17,0.00
2013-3-9,29,22,15,29,21,13,99,93,68,0.00,40.00,37,20,43,0.00
2013-3-10,33,23,14,17,14,10,99,70,48,0.00,40.00,35,25,44,0.00
2013-3-11,34,27,21,28,18,13,99,70,49,0.00,40.00,39,22,51,0.00
2013-3-12,33,24,16,26,21,16,99,90,70,0.00,40.00,29,14,37,0.00
2013-3-13,45,36,28,26,24,23,80,62,44,0.00,40.00,35,24,43,0.00
2013-3-14,52,43,32,25,22,19,62,43,31,0.00,40.00,27,15,35,0.00
2013-3-15,56,48,40,26,21,16,53,34,26,0.00,40.00,38,25,50,0.00
2013-3-16,46,36,27,31,22,10,99,62,30,0.00,40.00,26,14,34,0.00
2013-3-17,37,30,18,30,16,1,94,55,42,0.00,40.00,39,20,52,0.00
2013-3-18,29,22,14,19,9,2,74,56,47,0.00,40.00,34,24,47,0.00
2013-3-19,35,26,13,17,3,-5,99,42,19,0.00,40.00,31,21,44,0.00
2013-3-20,42,31,10,26,13,-1,99,52,25,0.00,40.00,25,12,37,0.00
2013-3-21,42,30,18,30,21,10,99,71,55,0.00,40.00,34,19,45,0.00
2013-3-22,25,18,13,15,8,5,99,66,48,0.00,40.00,26,13,34,0.00
2013-3-23,13,10,6,12,8,4,97,95,90,0.00,40.00,21,15,26,0.00
2013-3-25,25,16,3,9,5,0,88,62,43,0.00,40.00,21,11,27,0.00
2013-3-26,40,28,15,23,15,0,68,55,46,0.00,40.00,24,10,32,0.00
2013-3-27,46,34,25,29,25,18,99,71,37,0.00,40.00,16,7,22,0.00
2013-3-28,50,40,29,30,24,20,99,54,32,0.00,40.00,20,7,27,0.00
2013-3-29,50,41,34,34,28,24,78,60,42,0.00,40.00,26,12,38,0.00
2013-3-30,49,37,26,36,26,-100,99,66,43,0.00,40.00,32,19,44,0.00
2013-3-31,54,40,26,25,17,12,84,44,20,0.00,40.00,30,15,37,0.00
2013-4-1,38,29,22,32,26,22,99,90,63,0.00,40.00,21,13,27,0.00
2013-4-2,33,29,26,33,29,26,99,99,99,0.00,40.00,14,9,18,0.00
2013-4-3,52,37,25,31,22,10,100,64,19,0.00,40.00,27,10,37,0.00
2013-4-4,55,43,31,30,24,18,92,52,25,0.00,40.00,20,9,29,0.00
2013-4-5,55,45,34,35,23,17,99,44,29,0.00,40.00,37,16,48,0.00
2013-4-6,47,38,29,27,23,19,77,56,34,0.00,40.00,29,18,37,0.00
2013-4-7,46,36,28,35,28,21,99,75,38,0.00,40.00,30,16,38,0.00
2013-4-8,48,32,13,34,22,12,99,72,37,0.00,40.00,32,14,39,0.00
2013-4-9,12,6,-1,12,5,-3,99,95,86,0.00,40.00,24,12,29,0.00
2013-4-10,24,10,-3,17,8,-4,97,90,69,0.00,40.00,31,21,40,0.00
2013-4-11,36,30,24,30,24,18,93,80,58,0.00,40.00,37,22,45,0.00
2013-4-12,40,30,24,30,26,19,100,85,45,0.00,40.00,27,11,35,0.00
2013-4-13,46,36,24,35,21,10,99,62,27,0.00,40.00,34,16,46,0.00
2013-4-14,27,23,17,26,10,3,96,59,36,0.00,40.00,36,24,49,0.00
2013-4-15,23,16,13,20,15,8,99,96,53,0.00,40.00,26,15,30,0.00
2013-4-16,21,16,13,21,16,13,99,99,99,0.00,40.00,34,24,42,0.00
2013-4-17,18,13,7,18,13,5,99,98,91,0.00,40.00,22,16,28,0.00
2013-4-18,20,11,1,14,8,0,97,87,66,0.00,40.00,42,23,49,0.00
2013-4-19,34,26,18,23,17,12,86,70,51,0.00,40.00,36,24,47,0.00
2013-4-20,39,33,26,31,26,21,99,75,61,0.00,40.00,21,13,27,0.00
2013-4-21,42,36,30,28,21,16,88,58,36,0.00,40.00,29,17,37,0.00
2013-4-22,35,22,13,31,21,13,99,93,56,0.00,40.00,21,13,26,0.00
2013-4-23,25,16,5,18,11,5,99,81,59,0.00,40.00,14,9,21,0.00
2013-4-24,36,27,17,16,11,6,72,51,35,0.00,40.00,26,14,34,0.00
2013-4-25,49,38,28,17,10,2,40,31,24,0.00,40.00,19,10,26,0.00
2013-4-26,54,43,31,21,15,12,45,33,22,0.00,40.00,10,5,19,0.00
2013-4-27,57,48,38,21,17,11,34,29,21,0.00,40.00,24,14,32,0.00
2013-4-28,61,50,40,34,24,17,74,37,28,0.00,40.00,25,16,46,0.00
2013-4-29,60,51,39,34,26,22,71,41,25,0.00,40.00,34,17,42,0.00
2013-4-30,48,37,26,35,30,23,99,79,37,0.00,40.00,21,12,27,0.00
2013-5-1,26,18,12,26,18,11,99,97,93,0.00,40.00,20,12,24,0.00
2013-5-2,31,21,7,16,12,7,99,71,44,0.00,40.00,18,9,22,0.00
2013-5-3,56,36,24,28,16,8,66,45,20,0.00,40.00,18,9,24,0.00
2013-5-4,39,35,31,31,27,22,79,71,59,0.00,40.00,19,11,23,0.00
2013-5-5,43,34,24,28,23,17,75,62,49,0.00,40.00,25,16,31,0.00
2013-5-6,53,43,31,36,28,24,86,58,38,0.00,40.00,15,8,20,0.00
2013-5-7,54,43,36,41,36,30,99,77,41,0.00,40.00,17,9,25,0.00
2013-5-8,52,41,35,41,36,31,99,87,46,0.00,40.00,21,9,30,0.00
2013-5-9,50,41,36,38,35,29,99,81,47,0.00,40.00,18,8,24,0.00
2013-5-10,54,43,33,38,30,-100,99,68,29,0.00,40.00,21,10,29,0.00
2013-5-11,59,46,36,42,33,-100,99,67,28,0.00,40.00,29,8,40,0.00
2013-5-12,65,54,39,33,30,26,67,42,27,0.00,40.00,24,11,33,0.00
2013-5-13,71,61,50,39,34,30,49,37,27,0.00,40.00,17,9,23,0.00
2013-5-14,73,62,55,36,33,31,40,33,24,0.00,40.00,21,10,39,0.00
2013-5-15,67,55,45,48,38,30,99,55,32,0.00,40.00,21,9,30,0.00
2013-5-16,67,52,44,46,21,-100,99,51,23,0.00,40.00,23,10,46,0.00
2013-5-17,71,58,44,40,27,-100,74,38,17,0.00,40.00,23,9,34,0.00
2013-5-18,58,48,41,41,33,18,97,58,24,0.00,40.00,25,13,33,0.00
2013-5-19,51,43,38,39,34,30,99,70,45,0.00,40.00,34,22,39,0.00
2013-5-20,47,39,35,39,36,33,99,91,58,0.00,40.00,43,24,54,0.00
2013-5-21,53,42,33,35,28,24,100,63,33,0.00,40.00,26,18,34,0.00
2013-5-22,59,49,33,41,33,28,96,57,37,0.00,40.00,28,13,36,0.00
2013-5-23,52,42,38,47,42,38,100,98,73,0.00,40.00,34,23,42,0.00
2013-5-24,69,54,39,47,33,23,99,53,20,0.00,40.00,21,10,29,0.00
2013-5-25,71,61,45,50,26,14,100,35,12,0.00,40.00,18,9,30,0.00
2013-5-26,70,60,51,41,24,12,46,25,15,0.00,40.00,27,10,42,0.00
2013-5-27,65,58,51,29,24,18,34,26,22,0.00,40.00,26,12,38,0.00
2013-5-28,63,53,43,41,31,21,59,44,31,0.00,40.00,19,9,28,0.00
2013-5-29,51,43,37,41,35,29,99,75,45,0.00,40.00,29,14,37,0.00
2013-5-30,53,44,37,33,25,16,80,49,28,0.00,40.00,40,28,55,0.00
2013-5-31,53,44,36,33,23,18,80,43,31,0.00,40.00,40,30,54,0.00
2013-6-1,56,45,36,36,34,31,93,67,42,0.00,40.00,35,19,47,0.00
2013-6-2,67,54,35,37,34,30,81,50,28,0.00,40.00,22,9,27,0.00
2013-6-3,71,61,48,36,29,17,46,29,24,0.00,40.00,30,14,45,0.00
2013-6-4,62,49,40,44,34,16,93,58,29,0.00,40.00,26,12,35,0.00
2013-6-5,59,44,36,44,38,31,99,81,37,0.00,40.00,16,9,22,0.00
2013-6-6,67,55,39,42,31,23,99,48,21,0.00,40.00,19,7,24,0.00
2013-6-7,70,57,44,45,36,32,73,48,26,0.00,40.00,19,8,29,0.00
2013-6-8,66,58,49,44,35,26,74,43,26,0.00,40.00,32,19,41,0.00
2013-6-9,79,64,44,40,36,31,79,39,21,0.00,40.00,18,10,27,0.00
2013-6-10,83,70,53,40,35,29,41,27,19,0.00,40.00,26,10,41,0.00
2013-6-11,79,70,54,35,30,21,37,23,15,0.00,40.00,27,14,40,0.00
2013-6-12,75,64,54,52,34,22,85,33,25,0.00,40.00,21,13,30,0.00
2013-6-13,74,60,49,56,46,31,99,66,20,0.00,40.00,18,9,22,0.00
2013-6-14,77,62,51,45,35,24,76,38,15,0.00,40.00,24,13,42,0.00
2013-6-15,68,59,47,49,43,38,82,57,42,0.00,40.00,18,10,26,0.00
2013-6-16,72,61,47,51,32,18,99,41,13,0.00,40.00,29,10,52,0.00
2013-6-17,68,58,49,51,44,31,99,61,33,0.00,40.00,26,10,32,0.00
2013-6-18,73,58,47,49,42,29,99,62,23,0.00,40.00,26,14,34,0.00
2013-6-19,81,63,44,50,31,6,99,44,9,0.00,40.00,22,13,30,0.00
2013-6-20,74,58,45,28,18,6,28,21,11,0.00,40.00,20,13,27,0.00
2013-6-22,72,62,50,50,37,26,86,43,21,0.00,40.00,26,13,35,0.00
2013-6-23,69,58,43,44,34,20,66,41,29,0.00,40.00,23,12,29,0.00
2013-6-24,75,59,45,49,38,24,95,54,15,0.00,40.00,19,10,26,0.00
2013-6-25,71,63,53,41,36,26,44,36,24,0.00,40.00,26,14,35,0.00
2013-6-26,80,70,54,43,39,33,45,32,25,0.00,40.00,17,9,24,0.00
2013-6-27,77,64,58,43,37,34,43,36,24,0.00,40.00,14,7,17,0.00
2013-6-28,83,70,55,55,47,42,78,47,24,0.00,40.00,20,11,26,0.00
2013-6-29,75,66,53,55,50,44,91,59,38,0.00,40.00,18,9,32,0.00
2013-6-30,70,59,52,55,51,47,99,77,45,0.00,40.00,17,9,24,0.00
2013-7-1,66,56,50,55,51,48,99,84,54,0.00,40.00,14,7,19,0.00
2013-7-2,71,58,48,50,44,36,99,66,28,0.00,40.00,14,7,22,0.00
2013-7-3,78,70,60,44,39,33,49,33,20,0.00,40.00,18,11,34,0.00
2013-7-4,79,68,54,47,42,39,61,41,24,0.00,40.00,14,9,21,0.00
2013-7-5,76,60,54,54,49,44,99,68,33,0.00,40.00,16,8,22,0.00
2013-7-16,69,64,55,48,44,42,76,49,41,0.00,40.00,25,22,34,0.00
2013-7-17,74,61,51,53,49,42,99,71,36,0.00,40.00,24,13,34,0.00
2013-7-18,79,66,56,56,47,43,99,54,29,0.00,40.00,21,10,28,0.00
2013-7-19,71,61,55,56,52,45,99,72,44,0.00,40.00,22,11,27,0.00
2013-7-20,76,61,52,54,46,-100,99,66,30,0.00,40.00,19,10,27,0.00
2013-7-21,82,63,49,50,42,29,95,52,19,0.00,40.00,21,8,28,0.00
2013-7-22,83,65,58,52,29,23,64,28,13,0.00,40.00,12,7,25,0.00
2013-7-23,79,66,58,57,41,22,88,44,19,0.00,40.00,18,9,23,0.00
2013-7-24,72,63,51,57,54,51,99,74,53,0.00,40.00,22,14,29,0.00
2013-7-25,65,57,51,52,49,41,99,76,49,0.00,40.00,17,10,30,0.00
2013-7-26,76,63,50,50,41,33,91,49,25,0.00,40.00,21,7,29,0.00
2013-7-27,72,60,50,56,49,37,96,70,34,0.00,40.00,17,9,26,0.00
2013-7-28,68,55,49,57,52,45,99,89,42,0.00,40.00,15,7,20,0.00
2013-7-29,67,58,52,54,42,38,99,58,33,0.00,40.00,20,11,26,0.00
2013-7-30,74,61,50,49,43,39,82,54,28,0.00,40.00,18,7,27,0.00
2013-7-31,76,65,52,52,45,42,86,50,33,0.00,40.00,14,7,20,0.00
2013-8-1,77,62,49,51,45,35,99,58,26,0.00,40.00,24,11,36,0.00
2013-8-2,78,67,54,56,44,37,78,47,24,0.00,40.00,26,13,36,0.00
2013-8-3,77,59,50,58,50,32,99,81,20,0.00,40.00,20,12,28,0.00
2013-8-4,79,63,48,51,41,31,99,50,18,0.00,40.00,16,8,26,0.00
2013-8-5,75,64,57,45,41,38,65,43,30,0.00,40.00,21,10,30,0.00
2013-8-6,76,65,55,42,38,33,55,38,22,0.00,40.00,17,9,24,0.00
2013-8-7,66,58,47,54,51,42,99,79,53,0.00,40.00,21,12,28,0.00
2013-8-8,65,54,47,53,46,39,99,74,51,0.00,40.00,20,8,26,0.00
2013-8-9,65,56,47,46,41,36,83,58,35,0.00,40.00,21,8,28,0.00
2013-8-10,75,63,49,43,37,32,74,41,23,0.00,40.00,19,7,26,0.00
2013-8-11,70,59,52,49,42,33,80,53,33,0.00,40.00,17,8,29,0.00
2013-10-29,33,33,33,30,30,30,89,89,89,0.00,40.00,3,3,7,0.00